Flight Track Log - Related Links

Times and Time Zones

All times are in EDT time to prevent confusion due to time zone crossing. See the JBU1098 flight status page for this flight to view local times or setup timezone preferences in your user account.

Time Position Orientation Groundspeed Altitude Reporting Facility
EDT Latitude Longitude Course Direction KTS MPH feet Rate Location/Type
Fri 06:19:46 AM 19.2597 -70.2522 326° Northwest 454 522 22,900  Level Miami Center
Fri 06:20:46 AM 19.3542 -70.3200 326° Northwest 430 495 24,500 1,600 Climbing Miami Center
Fri 06:21:46 AM 19.4508 -70.3925 325° Northwest 418 481 26,100 1,350 Climbing Miami Center
Fri 06:22:46 AM 19.5453 -70.4606 326° Northwest 418 481 27,200 1,100 Climbing Miami Center
Fri 06:23:46 AM 19.6419 -70.5375 326° Northwest 418 481 28,300 1,100 Climbing Miami Center
Fri 06:24:46 AM 19.7386 -70.6081 326° Northwest 423 487 29,400 1,200 Climbing Miami Center
Fri 06:25:46 AM 19.8331 -70.6831 323° Northwest 423 487 30,700 1,250 Climbing Miami Center
Fri 06:26:46 AM 19.9297 -70.7558 325° Northwest 423 487 31,900 1,300 Climbing Miami Center
Fri 06:27:46 AM 20.0264 -70.8289 325° Northwest 423 487 33,300 1,200 Climbing Miami Center
Fri 06:28:46 AM 20.1208 -70.8997 325° Northwest 423 487 34,300 950 Climbing Miami Center
Fri 06:29:46 AM 20.2150 -70.9708 325° Northwest 423 487 35,200 800 Climbing Miami Center
Fri 06:30:46 AM 20.3053 -71.0419 324° Northwest 423 487 35,900 400 Climbing Miami Center
Fri 06:31:46 AM 20.4103 -71.1217 325° Northwest 418 481 36,000 50 Climbing Miami Center
Fri 06:32:46 AM 20.4889 -71.2133 312° West 418 481 36,000  Level Miami Center
Fri 06:33:46 AM 20.5653 -71.3122 310° West 424 488 36,000  Level Miami Center
Fri 06:34:46 AM 20.6375 -71.4089 309° West 424 488 36,000  Level Miami Center
Fri 06:35:46 AM 20.7139 -71.5056 310° West 424 488 36,000  Level Miami Center
Fri 06:36:46 AM 20.7903 -71.6022 310° West 429 494 36,000  Level Miami Center
Fri 06:37:46 AM 20.8644 -71.7014 309° West 429 494 36,000  Level Miami Center
Fri 06:38:46 AM 20.9406 -71.7986 310° West 429 494 36,000  Level Miami Center
Fri 06:39:46 AM 21.0147 -71.8936 310° West 429 494 36,000  Level Miami Center
Fri 06:40:46 AM 21.0908 -71.9931 309° West 429 494 36,000  Level Miami Center
Fri 06:41:46 AM 21.1669 -72.0903 310° West 429 494 36,000  Level Miami Center
Fri 06:42:46 AM 21.2386 -72.1878 308° West 429 494 36,000  Level Miami Center
Fri 06:43:46 AM 21.3147 -72.2833 311° West 429 494 36,000  Level Miami Center
Fri 06:44:46 AM 21.3883 -72.3811 309° West 429 494 36,000  Level Miami Center
Fri 06:45:46 AM 21.4644 -72.4811 309° West 429 494 36,000  Level Miami Center
Fri 06:46:46 AM 21.5381 -72.5789 309° West 429 494 36,000  Level Miami Center
Fri 06:47:46 AM 21.6139 -72.6769 310° West 429 494 36,000  Level Miami Center
Fri 06:48:46 AM 21.6875 -72.7753 309° West 429 494 36,000  Level Miami Center
Fri 06:49:46 AM 21.7611 -72.8736 309° West 429 494 36,000  Level Miami Center
Fri 06:50:46 AM 21.8367 -72.9717 310° West 429 494 36,000  Level Miami Center
Fri 06:51:46 AM 21.9100 -73.0725 308° West 429 494 36,000  Level Miami Center
Fri 06:52:46 AM 21.9856 -73.1733 309° West 429 494 36,000  Level Miami Center
Fri 06:53:46 AM 22.0483 -73.2611 308° West 429 494 36,000  Level Miami Center
Fri 06:54:46 AM 22.1258 -73.3622 310° West 429 494 36,000  Level Miami Center
Fri 06:55:46 AM 22.2033 -73.4611 310° West 434 499 36,000  Level Miami Center
Fri 06:56:46 AM 22.2722 -73.5647 306° West 434 499 36,000  Level Miami Center
Fri 06:57:46 AM 22.3456 -73.6639 309° West 429 494 36,000  Level Miami Center
Fri 06:58:46 AM 22.4228 -73.7631 310° West 429 494 36,000  Level Miami Center
Fri 06:59:46 AM 22.4894 -73.8625 306° West 429 494 36,000  Level Miami Center
Fri 07:00:46 AM 22.5667 -73.9597 311° West 429 494 36,000  Level Miami Center
Fri 07:01:46 AM 22.6394 -74.0594 308° West 429 494 36,000  Level Miami Center
Fri 07:02:46 AM 22.7144 -74.1567 310° West 429 494 36,000  Level Miami Center
Fri 07:03:46 AM 22.7872 -74.2589 308° West 429 494 36,000  Level Miami Center
Fri 07:04:46 AM 22.8619 -74.3567 310° West 429 494 36,000  Level Miami Center
Fri 07:05:46 AM 22.9411 -74.4656 308° West 429 494 36,000  Level Miami Center
Fri 07:06:46 AM 23.0156 -74.5681 308° West 434 499 36,000  Level Miami Center
Fri 07:07:46 AM 23.0883 -74.6683 308° West 429 494 36,000  Level Miami Center
Fri 07:08:46 AM 23.1650 -74.7686 310° West 429 494 36,000  Level Miami Center
Fri 07:09:46 AM 23.2372 -74.8692 308° West 429 494 36,000  Level Miami Center
Fri 07:10:46 AM 23.3097 -74.9700 308° West 429 494 36,000  Level Miami Center
Fri 07:11:46 AM 23.3839 -75.0706 309° West 429 494 36,000  Level Miami Center
Fri 07:12:46 AM 23.4561 -75.1717 308° West 429 494 36,000  Level Miami Center
Fri 07:13:46 AM 23.5325 -75.2725 310° West 429 494 36,000  Level Miami Center
Fri 07:14:46 AM 23.6025 -75.3736 307° West 429 494 36,000  Level Miami Center
Fri 07:15:46 AM 23.6767 -75.4725 309° West 429 494 36,000  Level Miami Center
Fri 07:16:46 AM 23.7444 -75.5650 309° West 434 499 36,000  Level Miami Center
Fri 07:17:46 AM 23.8161 -75.6664 308° West 429 494 36,000  Level Miami Center
Fri 07:18:46 AM 23.8858 -75.7658 307° West 429 494 36,000  Level Miami Center
Fri 07:19:46 AM 23.9578 -75.8675 308° West 429 494 36,000  Level Miami Center
Fri 07:20:46 AM 24.0272 -75.9669 307° West 429 494 36,000  Level Miami Center
Fri 07:21:46 AM 24.0989 -76.0667 308° West 429 494 36,000  Level Miami Center
Fri 07:22:46 AM 24.1706 -76.1686 308° West 429 494 36,000  Level Miami Center
Fri 07:23:46 AM 24.2419 -76.2708 307° West 429 494 36,000  Level Miami Center
Fri 07:24:46 AM 24.3133 -76.3708 308° West 429 494 36,000 -450 Level Miami Center
Fri 07:25:46 AM 24.3847 -76.4708 308° West 429 494 35,100 -950 Descending Miami Center
Fri 07:26:46 AM 24.4625 -76.5847 307° West 424 488 34,100 -550 Descending Miami Center
Fri 07:27:46 AM 24.5314 -76.6875 306° West 424 488 34,000 -50 Descending Miami Center
Fri 07:28:46 AM 24.6028 -76.7858 309° West 424 488 34,000  Level Miami Center
Fri 07:29:46 AM 24.6758 -76.8886 308° West 424 488 34,000  Level Miami Center
Fri 07:30:46 AM 24.7447 -76.9892 307° West 424 488 34,000  Level Miami Center
Fri 07:31:46 AM 24.8156 -77.0900 308° West 419 482 34,000  Level Miami Center
Fri 07:32:46 AM 24.8867 -77.1933 307° West 419 482 34,000  Level Miami Center
Fri 07:33:46 AM 24.9572 -77.2942 308° West 419 482 34,000  Level Miami Center
Fri 07:34:46 AM 25.0344 -77.4025 308° West 419 482 34,000  Level Miami Center
Fri 07:35:46 AM 25.1008 -77.5036 306° West 425 489 34,000  Level Miami Center
Fri 07:36:46 AM 25.1714 -77.6028 308° West 442 509 34,000  Level Miami Center
Fri 07:37:46 AM 25.2378 -77.7042 306° West 431 496 34,000  Level Miami Center
Fri 07:38:46 AM 25.3103 -77.8083 308° West 426 490 34,000 -450 Level Miami Center
Fri 07:39:46 AM 25.3681 -77.9144 301° West 420 483 33,100 -1,400 Descending Miami Center
Fri 07:40:46 AM 25.4028 -78.0367 287° West 414 476 31,200 -2,000 Descending Miami Center
Fri 07:41:46 AM 25.4392 -78.1636 288° West 421 484 29,100 -2,100 Descending Miami Center
Fri 07:42:46 AM 25.4756 -78.2906 288° West 432 497 27,000 -2,150 Descending Miami Center
Fri 07:43:46 AM 25.5100 -78.4175 287° West 432 497 24,800 -1,500 Descending Miami Center
Fri 07:44:46 AM 25.5442 -78.5400 287° West 427 491 24,000 -850 Descending Miami Center
Fri 07:45:46 AM 25.5761 -78.6650 286° West 422 486 23,100 -1,550 Descending Miami Center
Fri 07:46:46 AM 25.6122 -78.7786 289° West 417 480 20,900 -2,300 Descending Miami Center
Fri 07:47:46 AM 25.6461 -78.8942 288° West 405 466 18,500 -2,450 Descending Miami Center
Fri 07:48:46 AM 25.6800 -79.0125 288° West 386 444 16,000 -2,550 Descending Miami Center
Fri 07:49:46 AM 25.7097 -79.1189 287° West 375 432 13,400 -2,050 Descending Miami Center
Fri 07:50:46 AM 25.7394 -79.2211 288° West 359 413 11,900 -1,250 Descending Miami Center
Fri 07:51:46 AM 25.7592 -79.3000 286° West 314 361 10,900 -1,450 Descending Miami Center
Fri 07:52:46 AM 25.7825 -79.3903 286° West 291 335 9,000 -1,800 Descending Miami Center
Fri 07:53:46 AM 25.8042 -79.4739 286° West 285 328 7,300 -1,753 Descending Miami Center
Fri 07:54:15 AM 25.8158 -79.5133 288° West 279 321 6,400 -1,750 Descending Miami Center
Fri 07:54:34 AM 25.8217 -79.5411 283° West 278 320 5,900 -1,063 Descending Miami Center
Fri 07:55:34 AM 25.8453 -79.6203 288° West 271 312 5,000 -446 Descending Miami Center
Fri 07:56:35 AM 25.8922 -79.6789 312° West 268 308 5,000 -492 Level Miami Center
Fri 07:57:36 AM 25.9561 -79.7292 325° Northwest 262 302 4,000 -984 Descending Miami Center
Fri 07:58:37 AM 26.0156 -79.7789 323° Northwest 259 298 3,000 -984 Descending Miami Center
Fri 07:59:38 AM 26.0456 -79.8492 295° West 250 288 2,000 -517 Descending Miami Center
Fri 08:00:33 AM 26.0692 -79.9144 292° West 254 292 2,000  Level Miami Center
Fri 08:01:34 AM 26.0719 -79.9864 272° West 214 246 2,000 -148 Level Miami Center
Fri 08:02:35 AM 26.0728 -80.0442 271° West 170 196 1,700 -545 Descending Miami Center
Fri 08:03:46 AM 26.0778 -80.0997 276° West 180 207 800 -761 Descending Miami Center
Fri 08:05:00 AM 26.0726 -80.1527 270° West  Level Estimated
Fri 08:12:00 AM 26.0667 -80.1500 77° East  Level FlightAware Approximate

Login

Don't have an account? Register now (free) for customized features, flight alerts, and more!